Time;durP1;ratioP1;P1;durP2;ratioP2;P2;SDS_P1;SDS_P2;PMS_P1;PMS_P2;Temp;Humidity;BMP_temperature;BMP_pressure;BME280_temperature;BME280_humidity;BME280_pressure;Samples;Min_cycle;Max_cycle;Signal;HPM_P1;HPM_P2
2022/07/23 00:00:28;;;;;;;9.50;5.03;;;16.60;99.90;;;;;;5084002;28;20199;-86
2022/07/23 00:03:03;;;;;;;7.37;5.40;;;16.60;99.90;;;;;;5075444;28;20309;-85
2022/07/23 00:05:30;;;;;;;8.03;5.00;;;16.50;99.90;;;;;;5085798;28;20214;-84
2022/07/23 00:08:00;;;;;;;6.47;5.07;;;16.40;99.90;;;;;;5081295;28;20242;-85
2022/07/23 00:10:27;;;;;;;11.23;5.13;;;16.40;99.90;;;;;;5081469;28;20204;-83
2022/07/23 00:12:54;;;;;;;5.43;4.50;;;16.40;99.90;;;;;;5076000;28;20688;-84
2022/07/23 00:15:21;;;;;;;9.73;5.00;;;16.30;99.90;;;;;;5081504;28;20668;-84
2022/07/23 00:17:47;;;;;;;6.17;4.63;;;16.30;99.90;;;;;;5077426;28;20212;-83
2022/07/23 00:20:15;;;;;;;7.73;4.90;;;16.30;99.90;;;;;;5075672;28;20277;-83
2022/07/23 00:22:53;;;;;;;8.03;4.80;;;16.20;99.90;;;;;;5082463;28;20672;-84
2022/07/23 00:25:23;;;;;;;5.90;4.60;;;16.20;99.90;;;;;;5079165;28;20876;-87
2022/07/23 00:27:55;;;;;;;8.67;4.53;;;16.20;99.90;;;;;;5081492;28;20223;-85
2022/07/23 00:30:22;;;;;;;6.73;4.97;;;16.10;99.90;;;;;;5078057;28;20218;-85
2022/07/23 00:32:52;;;;;;;6.50;4.57;;;16.10;99.90;;;;;;5076827;28;20216;-86
2022/07/23 00:35:24;;;;;;;9.00;4.77;;;16.10;99.90;;;;;;5072628;28;20196;-85
2022/07/23 00:37:52;;;;;;;6.93;4.90;;;16.00;99.90;;;;;;5079594;28;20207;-84
2022/07/23 00:40:19;;;;;;;9.13;5.03;;;16.00;99.90;;;;;;5083307;28;20620;-84
2022/07/23 00:42:47;;;;;;;8.23;5.10;;;15.90;99.90;;;;;;5078851;28;20207;-86
2022/07/23 00:45:14;;;;;;;5.93;4.70;;;15.80;99.90;;;;;;5077506;28;20212;-85
2022/07/23 00:47:43;;;;;;;5.80;4.03;;;15.80;99.90;;;;;;5076827;28;20228;-85
2022/07/23 00:50:10;;;;;;;6.97;5.43;;;15.70;99.90;;;;;;5081119;28;20204;-85
2022/07/23 00:52:38;;;;;;;8.87;5.37;;;15.90;99.90;;;;;;5083002;28;20227;-84
2022/07/23 00:55:07;;;;;;;6.57;4.43;;;15.70;99.90;;;;;;5081081;28;20214;-85
2022/07/23 00:57:34;;;;;;;9.10;4.80;;;15.70;99.90;;;;;;5080775;28;20601;-85
2022/07/23 01:00:02;;;;;;;7.63;4.67;;;15.70;99.90;;;;;;5084029;28;20207;-84
2022/07/23 01:02:29;;;;;;;9.73;4.90;;;15.60;99.90;;;;;;5086235;28;20301;-85
2022/07/23 01:04:56;;;;;;;6.63;4.87;;;15.60;99.90;;;;;;5076794;28;21008;-86
2022/07/23 01:07:23;;;;;;;6.70;5.03;;;15.60;99.90;;;;;;5083575;28;20216;-86
2022/07/23 01:09:51;;;;;;;9.87;5.40;;;15.50;99.90;;;;;;5085306;28;20208;-85
2022/07/23 01:12:18;;;;;;;6.17;5.20;;;15.50;99.90;;;;;;5081899;28;20211;-85
2022/07/23 01:14:52;;;;;;;7.50;5.03;;;15.40;99.90;;;;;;5081791;28;20265;-87
2022/07/23 01:17:19;;;;;;;5.90;4.80;;;15.40;99.90;;;;;;5076511;28;20249;-84
2022/07/23 01:19:49;;;;;;;7.87;5.07;;;15.40;99.90;;;;;;5081173;28;20200;-85
2022/07/23 01:22:19;;;;;;;6.33;5.10;;;15.40;99.90;;;;;;5084053;28;20203;-85
2022/07/23 01:24:47;;;;;;;6.53;5.10;;;15.40;99.90;;;;;;5087402;28;20210;-85
2022/07/23 01:27:14;;;;;;;7.67;5.40;;;15.30;99.90;;;;;;5084830;28;20684;-85
2022/07/23 01:29:41;;;;;;;9.87;5.47;;;15.30;99.90;;;;;;5087155;28;20208;-85
2022/07/23 01:32:08;;;;;;;7.07;5.10;;;15.20;99.90;;;;;;5083406;28;20693;-84
2022/07/23 01:34:37;;;;;;;8.27;4.73;;;15.20;99.90;;;;;;5081228;28;20203;-85
2022/07/23 01:37:05;;;;;;;8.50;4.97;;;15.20;99.90;;;;;;5086776;28;20211;-84
2022/07/23 01:39:32;;;;;;;10.67;5.13;;;15.20;99.90;;;;;;5089401;28;20207;-88
2022/07/23 01:41:59;;;;;;;7.20;4.90;;;15.20;99.90;;;;;;5089238;28;20203;-85
2022/07/23 01:44:26;;;;;;;7.50;5.33;;;15.10;99.90;;;;;;5086517;28;20615;-86
2022/07/23 01:46:55;;;;;;;6.20;4.70;;;15.10;99.90;;;;;;5098284;28;20593;-84
2022/07/23 01:49:22;;;;;;;9.63;4.93;;;15.10;99.90;;;;;;5084703;28;20232;-86
2022/07/23 01:52:01;;;;;;;6.70;4.60;;;15.10;99.90;;;;;;5096814;28;20252;-85
2022/07/23 01:54:29;;;;;;;10.47;5.80;;;15.10;99.90;;;;;;5090918;28;20702;-86
2022/07/23 01:56:56;;;;;;;8.03;5.60;;;15.10;99.90;;;;;;5087249;28;20199;-85
2022/07/23 01:59:25;;;;;;;6.40;5.40;;;15.00;99.90;;;;;;5086354;28;20203;-85
2022/07/23 02:01:53;;;;;;;8.30;5.23;;;15.00;99.90;;;;;;5085628;28;20604;-84
2022/07/23 02:04:21;;;;;;;6.87;4.67;;;15.10;99.90;;;;;;5081153;28;20332;-85
2022/07/23 02:06:49;;;;;;;7.07;4.93;;;15.10;99.90;;;;;;5082209;28;20200;-85
2022/07/23 02:09:16;;;;;;;7.23;5.80;;;14.90;99.90;;;;;;5085242;28;20231;-83
2022/07/23 02:11:43;;;;;;;9.57;5.30;;;14.90;99.90;;;;;;5085298;28;20200;-86
2022/07/23 02:14:10;;;;;;;11.03;5.30;;;14.90;99.90;;;;;;5084012;28;20212;-84
2022/07/23 02:16:38;;;;;;;9.33;5.50;;;14.80;99.90;;;;;;5085055;28;20211;-84
2022/07/23 02:19:05;;;;;;;10.67;5.07;;;14.80;99.90;;;;;;5080186;28;20216;-87
2022/07/23 02:21:32;;;;;;;8.47;5.20;;;14.90;99.90;;;;;;5082975;28;20204;-84
2022/07/23 02:23:58;;;;;;;6.67;5.27;;;14.80;99.90;;;;;;5082999;28;20673;-83
2022/07/23 02:26:25;;;;;;;8.53;5.30;;;14.90;99.90;;;;;;5077111;28;20206;-86
2022/07/23 02:28:55;;;;;;;7.80;4.93;;;14.70;99.90;;;;;;5088136;28;20236;-85
2022/07/23 02:31:22;;;;;;;7.37;5.03;;;14.70;99.90;;;;;;5087807;28;20222;-85
2022/07/23 02:33:49;;;;;;;7.37;5.03;;;14.60;99.90;;;;;;5088690;28;20303;-85
2022/07/23 02:36:16;;;;;;;10.13;5.20;;;15.20;99.90;;;;;;5083533;28;20215;-85
2022/07/23 02:38:43;;;;;;;8.97;6.03;;;14.40;99.90;;;;;;5085278;28;20207;-85
2022/07/23 02:41:10;;;;;;;8.17;5.00;;;15.10;99.90;;;;;;5087177;28;20843;-83
2022/07/23 02:43:37;;;;;;;8.73;4.87;;;15.10;99.90;;;;;;5085758;28;20952;-85
2022/07/23 02:46:04;;;;;;;8.63;5.67;;;14.10;99.90;;;;;;5085522;28;20207;-85
2022/07/23 02:48:31;;;;;;;7.17;5.10;;;14.60;99.90;;;;;;5086384;28;20623;-86
2022/07/23 02:51:00;;;;;;;7.47;5.50;;;14.50;99.90;;;;;;5079522;28;20200;-87
2022/07/23 02:53:27;;;;;;;6.57;4.47;;;14.50;99.90;;;;;;5080300;28;20228;-85
2022/07/23 02:55:57;;;;;;;8.90;5.00;;;14.90;99.90;;;;;;5083715;28;20196;-84
2022/07/23 02:58:26;;;;;;;6.57;5.00;;;14.10;99.90;;;;;;5080616;28;20204;-85
2022/07/23 03:00:53;;;;;;;7.47;4.30;;;14.50;99.90;;;;;;5078555;28;20661;-85
2022/07/23 03:03:20;;;;;;;5.93;4.40;;;14.50;99.90;;;;;;5075239;28;20720;-84
2022/07/23 03:05:52;;;;;;;7.20;5.00;;;14.40;99.90;;;;;;5081884;28;20716;-85
2022/07/23 03:08:19;;;;;;;7.10;5.30;;;14.50;99.90;;;;;;5086781;28;20250;-86
2022/07/23 03:10:46;;;;;;;7.57;4.70;;;14.60;99.90;;;;;;5085531;28;20195;-85
2022/07/23 03:13:13;;;;;;;7.10;4.73;;;14.70;99.90;;;;;;5086033;28;20208;-85
2022/07/23 03:15:40;;;;;;;6.27;4.23;;;14.60;99.90;;;;;;5083783;28;20199;-85
2022/07/23 03:18:07;;;;;;;7.37;4.57;;;;;;;;;;5075773;28;20302;-84
2022/07/23 03:20:35;;;;;;;6.13;4.20;;;14.20;99.90;;;;;;5082510;28;20206;-86
2022/07/23 03:23:01;;;;;;;5.43;4.50;;;14.20;99.90;;;;;;5082501;28;20208;-84
2022/07/23 03:25:32;;;;;;;5.63;4.50;;;14.20;99.90;;;;;;5078486;28;20211;-84
2022/07/23 03:27:59;;;;;;;6.97;5.33;;;14.20;99.90;;;;;;5089609;28;20215;-84
2022/07/23 03:30:26;;;;;;;5.97;4.80;;;14.10;99.90;;;;;;5082425;28;20204;-85
2022/07/23 03:32:52;;;;;;;6.27;4.33;;;14.10;99.90;;;;;;5081892;28;20216;-86
2022/07/23 03:35:19;;;;;;;5.50;4.40;;;14.10;99.90;;;;;;5080471;28;20204;-85
2022/07/23 03:37:46;;;;;;;7.13;5.43;;;14.10;99.90;;;;;;5082283;28;20204;-83
2022/07/23 03:40:13;;;;;;;6.33;4.87;;;14.00;99.90;;;;;;5094628;28;20204;-84
2022/07/23 03:42:43;;;;;;;7.07;5.17;;;14.00;99.90;;;;;;5092853;28;20211;-85
2022/07/23 03:45:10;;;;;;;6.07;4.20;;;14.00;99.90;;;;;;5098265;28;20302;-84
2022/07/23 03:47:38;;;;;;;6.73;4.67;;;14.00;99.90;;;;;;5100015;28;20216;-83
2022/07/23 03:50:07;;;;;;;8.20;5.07;;;14.00;99.90;;;;;;5094076;28;20200;-84
2022/07/23 03:52:34;;;;;;;7.80;4.67;;;13.90;99.90;;;;;;5091748;28;20281;-84
2022/07/23 03:55:03;;;;;;;8.23;5.33;;;13.90;99.90;;;;;;5099099;28;20241;-87
2022/07/23 03:57:42;;;;;;;8.93;4.53;;;13.90;99.90;;;;;;5089525;28;20183;-84
2022/07/23 04:00:11;;;;;;;6.03;4.73;;;13.90;99.90;;;;;;5099912;28;20265;-87
2022/07/23 04:02:38;;;;;;;7.53;4.43;;;13.90;99.90;;;;;;5087402;28;20314;-85
2022/07/23 04:05:09;;;;;;;7.83;5.10;;;13.90;99.90;;;;;;5079492;28;20261;-85
2022/07/23 04:07:37;;;;;;;7.23;4.53;;;13.80;99.90;;;;;;5087984;28;20212;-85
2022/07/23 04:10:05;;;;;;;6.93;5.03;;;13.90;99.90;;;;;;5086038;28;20726;-85
2022/07/23 04:12:32;;;;;;;6.73;4.63;;;13.90;99.90;;;;;;5079896;28;20287;-85
2022/07/23 04:14:59;;;;;;;8.63;5.37;;;13.90;99.90;;;;;;5084940;28;20196;-83
2022/07/23 04:17:26;;;;;;;9.77;5.53;;;14.00;99.90;;;;;;5085737;28;20219;-87
2022/07/23 04:19:53;;;;;;;6.07;4.53;;;13.90;99.90;;;;;;5082960;28;20199;-82
2022/07/23 04:22:23;;;;;;;7.00;4.50;;;14.00;99.90;;;;;;5083815;28;20210;-87
2022/07/23 04:24:50;;;;;;;7.63;5.17;;;14.00;99.90;;;;;;5081947;28;20832;-82
2022/07/23 04:27:17;;;;;;;7.43;5.07;;;14.00;99.90;;;;;;5088995;28;20211;-83
2022/07/23 04:29:46;;;;;;;6.30;5.13;;;14.00;99.90;;;;;;5077703;28;20609;-85
2022/07/23 04:32:13;;;;;;;7.17;4.97;;;14.10;99.90;;;;;;5082437;28;20297;-84
2022/07/23 04:34:40;;;;;;;7.47;5.13;;;14.10;99.90;;;;;;5083982;28;20545;-84
2022/07/23 04:37:07;;;;;;;11.37;5.83;;;14.10;99.90;;;;;;5083937;28;20208;-82
2022/07/23 04:39:34;;;;;;;7.53;5.07;;;14.20;99.90;;;;;;5080716;28;20681;-84
2022/07/23 04:42:01;;;;;;;6.77;5.60;;;14.20;99.90;;;;;;5079908;28;20204;-84
2022/07/23 04:44:28;;;;;;;7.83;5.13;;;14.20;99.90;;;;;;5070921;28;20215;-84
2022/07/23 04:46:55;;;;;;;8.50;5.57;;;14.30;99.90;;;;;;5075208;28;20926;-85
2022/07/23 04:49:25;;;;;;;8.63;4.93;;;14.40;99.90;;;;;;5078848;28;20231;-84
2022/07/23 04:51:55;;;;;;;9.07;5.33;;;14.40;99.90;;;;;;5075958;28;20292;-83
2022/07/23 04:54:22;;;;;;;6.73;5.20;;;14.40;99.90;;;;;;5081501;28;20220;-83
2022/07/23 04:56:49;;;;;;;7.93;5.10;;;14.50;99.90;;;;;;5080588;28;20208;-84
2022/07/23 04:59:15;;;;;;;6.27;5.17;;;14.60;99.90;;;;;;5082695;28;20200;-83
2022/07/23 05:01:43;;;;;;;6.37;5.10;;;14.60;99.90;;;;;;5087493;28;20544;-83
2022/07/23 05:04:10;;;;;;;8.17;5.27;;;14.70;99.90;;;;;;5083219;28;21014;-84
2022/07/23 05:06:37;;;;;;;7.33;4.70;;;14.70;99.90;;;;;;5085876;28;20208;-84
2022/07/23 05:09:03;;;;;;;7.70;4.73;;;14.80;99.90;;;;;;5076848;28;20280;-84
2022/07/23 05:11:33;;;;;;;9.07;4.70;;;14.80;99.90;;;;;;5085447;28;20235;-85
2022/07/23 05:14:02;;;;;;;9.73;6.20;;;14.90;99.90;;;;;;5087668;28;20206;-83
2022/07/23 05:16:29;;;;;;;10.10;5.10;;;15.00;99.90;;;;;;5092548;28;20199;-83
2022/07/23 05:18:58;;;;;;;6.83;4.80;;;15.10;99.90;;;;;;5080515;28;20219;-84
2022/07/23 05:21:26;;;;;;;8.67;5.17;;;15.10;99.90;;;;;;5083459;28;20214;-84
2022/07/23 05:23:53;;;;;;;7.97;5.40;;;15.10;99.90;;;;;;5087782;28;20291;-84
2022/07/23 05:26:20;;;;;;;8.23;4.90;;;15.10;99.90;;;;;;5088916;28;20214;-85
2022/07/23 05:28:47;;;;;;;8.00;5.17;;;15.20;99.90;;;;;;5084076;28;20260;-85
2022/07/23 05:31:16;;;;;;;5.87;4.83;;;15.20;99.90;;;;;;5087474;28;20198;-85
2022/07/23 05:33:43;;;;;;;6.77;5.10;;;15.30;99.90;;;;;;5081263;28;20632;-83
2022/07/23 05:36:13;;;;;;;9.37;5.40;;;15.40;99.90;;;;;;5089021;28;20203;-86
2022/07/23 05:38:40;;;;;;;10.30;5.63;;;15.40;99.90;;;;;;5085323;28;20216;-83
2022/07/23 05:41:11;;;;;;;9.10;5.27;;;15.50;99.90;;;;;;5089479;28;20200;-88
2022/07/23 05:43:43;;;;;;;10.37;5.90;;;15.50;99.90;;;;;;5087230;28;20208;-83
2022/07/23 05:46:14;;;;;;;7.17;5.03;;;15.70;99.90;;;;;;5087167;28;20739;-83
2022/07/23 05:48:42;;;;;;;7.60;5.15;;;16.20;99.90;;;;;;5082674;28;20219;-83
2022/07/23 05:51:13;;;;;;;5.78;4.40;;;17.20;99.90;;;;;;5082237;28;20203;-83
2022/07/23 05:53:47;;;;;;;9.13;4.57;;;18.40;99.90;;;;;;5086825;28;20224;-83
2022/07/23 05:56:15;;;;;;;39.90;5.97;;;19.60;99.90;;;;;;5081928;28;20981;-81
2022/07/23 05:58:43;;;;;;;4.57;4.10;;;20.80;99.90;;;;;;5086515;28;20204;-85
2022/07/23 06:01:21;;;;;;;5.45;4.15;;;;;;;;;;5080320;28;20208;-86
2022/07/23 06:03:49;;;;;;;5.55;3.88;;;23.00;99.90;;;;;;5085869;28;20294;-85
2022/07/23 06:06:16;;;;;;;6.15;3.63;;;24.00;99.90;;;;;;5086507;28;20216;-86
2022/07/23 06:08:45;;;;;;;4.68;3.63;;;24.80;99.90;;;;;;5086520;28;20226;-87
2022/07/23 06:11:12;;;;;;;4.28;3.70;;;25.40;99.90;;;;;;5087105;28;20289;-86
2022/07/23 06:13:43;;;;;;;4.38;2.97;;;26.00;99.90;;;;;;5087126;28;20627;-85
2022/07/23 06:16:13;;;;;;;4.80;2.92;;;;;;;;;;5080849;28;20750;-85
2022/07/23 06:18:41;;;;;;;5.15;2.72;;;26.90;99.90;;;;;;5081356;28;20344;-87
2022/07/23 06:21:08;;;;;;;3.55;2.63;;;27.30;99.90;;;;;;5090385;28;20212;-86
2022/07/23 06:23:58;;;;;;;7.35;3.05;;;27.70;99.90;;;;;;5080439;28;20196;-85
2022/07/23 06:26:30;;;;;;;4.28;2.50;;;28.20;99.90;;;;;;5080456;28;20200;-86
2022/07/23 06:29:00;;;;;;;4.53;1.88;;;28.60;99.90;;;;;;5083739;28;20231;-86
2022/07/23 06:31:31;;;;;;;4.57;2.75;;;28.90;99.90;;;;;;5083606;28;20207;-89
2022/07/23 06:34:00;;;;;;;2.53;1.70;;;29.10;99.90;;;;;;5086709;28;20207;-84
2022/07/23 06:36:27;;;;;;;2.30;2.00;;;29.10;99.90;;;;;;5081858;28;20200;-84
2022/07/23 06:38:54;;;;;;;2.60;1.90;;;29.00;99.90;;;;;;5081886;28;20204;-86
2022/07/23 06:41:23;;;;;;;3.58;1.80;;;29.20;99.90;;;;;;5091612;28;20299;-85
2022/07/23 06:43:57;;;;;;;3.92;2.05;;;29.30;99.90;;;;;;5103890;28;20235;-83
2022/07/23 06:46:27;;;;;;;3.25;1.70;;;29.60;99.30;;;;;;5084765;28;20212;-84
2022/07/23 06:48:54;;;;;;;2.65;1.48;;;29.70;98.00;;;;;;5078476;28;20220;-84
2022/07/23 06:51:21;;;;;;;2.95;1.60;;;29.80;97.20;;;;;;5079522;28;20631;-84
2022/07/23 06:53:59;;;;;;;3.53;1.95;;;29.70;96.70;;;;;;5094150;28;20219;-85
2022/07/23 06:56:53;;;;;;;;;;;;;;;;;;;;;
2022/07/23 06:59:38;;;;;;;2.97;1.63;;;29.80;96.10;;;;;;5087938;28;20215;-85
2022/07/23 07:02:15;;;;;;;2.25;1.50;;;30.10;95.70;;;;;;5087016;28;20302;-85
2022/07/23 07:04:42;;;;;;;3.03;1.50;;;30.00;95.40;;;;;;5086550;28;20286;-85
2022/07/23 07:07:12;;;;;;;2.38;1.40;;;30.10;95.30;;;;;;5079646;28;20201;-83
2022/07/23 07:09:42;;;;;;;2.35;1.00;;;30.20;94.20;;;;;;5098344;28;20250;-91
2022/07/23 07:12:11;;;;;;;1.70;1.38;;;30.40;92.80;;;;;;5081816;28;20227;-86
2022/07/23 07:14:39;;;;;;;3.15;1.30;;;30.40;93.20;;;;;;5084784;28;20204;-84
2022/07/23 07:17:08;;;;;;;3.75;1.50;;;30.50;92.10;;;;;;5086548;28;20216;-85
2022/07/23 07:19:35;;;;;;;2.78;1.70;;;30.70;91.50;;;;;;5079433;28;20215;-83
2022/07/23 07:22:02;;;;;;;2.75;1.92;;;30.70;91.40;;;;;;5085235;28;20560;-85
2022/07/23 07:24:30;;;;;;;2.42;1.30;;;30.80;91.20;;;;;;5074772;28;20300;-83
2022/07/23 07:27:03;;;;;;;3.45;1.52;;;30.70;90.70;;;;;;5080202;28;20203;-82
2022/07/23 07:29:30;;;;;;;2.90;1.55;;;30.70;90.50;;;;;;5081431;28;20273;-82
2022/07/23 07:32:00;;;;;;;2.95;1.60;;;30.60;90.70;;;;;;5084303;28;20238;-82
2022/07/23 07:34:27;;;;;;;3.60;1.80;;;30.80;90.30;;;;;;5077660;28;20239;-83
2022/07/23 07:36:54;;;;;;;4.30;2.08;;;31.00;90.00;;;;;;5078802;28;20208;-82
2022/07/23 07:39:21;;;;;;;4.72;1.63;;;31.20;89.40;;;;;;5082302;28;20200;-82
2022/07/23 07:41:48;;;;;;;3.17;1.90;;;31.10;89.40;;;;;;5080582;28;20261;-82
2022/07/23 07:44:15;;;;;;;2.92;1.90;;;31.10;89.30;;;;;;5078034;28;20200;-84
2022/07/23 07:46:45;;;;;;;3.78;1.80;;;31.00;89.40;;;;;;5080357;28;20281;-82
2022/07/23 07:49:13;;;;;;;2.30;1.45;;;31.10;88.80;;;;;;5079597;28;20231;-84
2022/07/23 07:51:59;;;;;;;1.98;1.40;;;31.30;88.40;;;;;;5080820;28;20292;-84
2022/07/23 07:54:27;;;;;;;4.95;1.65;;;31.20;87.20;;;;;;5079520;28;20314;-83
2022/07/23 07:56:54;;;;;;;2.38;1.50;;;31.10;85.80;;;;;;5082963;28;20203;-84
2022/07/23 07:59:21;;;;;;;2.58;1.30;;;31.20;86.30;;;;;;5097119;28;20211;-85
2022/07/23 08:01:48;;;;;;;4.75;1.90;;;31.10;86.10;;;;;;5092320;28;20211;-84
2022/07/23 08:04:15;;;;;;;2.45;1.55;;;30.80;85.10;;;;;;5083841;28;20239;-84
2022/07/23 08:06:42;;;;;;;2.45;1.45;;;30.50;86.50;;;;;;5084858;28;20214;-86
2022/07/23 08:09:12;;;;;;;3.08;1.50;;;30.60;86.60;;;;;;5082633;28;20310;-85
2022/07/23 08:11:39;;;;;;;3.35;1.60;;;30.70;86.40;;;;;;5081532;28;20223;-85
2022/07/23 08:14:07;;;;;;;5.38;1.55;;;30.80;84.10;;;;;;5079573;28;20700;-86
2022/07/23 08:16:35;;;;;;;5.85;2.08;;;30.40;85.60;;;;;;5080965;28;20640;-83
2022/07/23 08:19:22;;;;;;;5.70;1.55;;;30.00;86.20;;;;;;5087862;28;21222;-85
2022/07/23 08:21:50;;;;;;;3.13;1.40;;;29.70;88.00;;;;;;5087507;28;20629;-86
2022/07/23 08:24:19;;;;;;;2.22;1.52;;;29.50;88.10;;;;;;5090128;28;20204;-88
2022/07/23 08:26:49;;;;;;;3.78;1.63;;;29.30;88.60;;;;;;5088699;28;20227;-88
2022/07/23 08:29:19;;;;;;;4.93;1.88;;;29.20;88.50;;;;;;5084385;28;20227;-87
2022/07/23 08:31:53;;;;;;;3.70;1.80;;;29.10;88.70;;;;;;5078243;28;20188;-83
2022/07/23 08:34:29;;;;;;;3.15;1.80;;;29.10;89.70;;;;;;5084334;28;20203;-83
2022/07/23 08:36:56;;;;;;;3.33;1.60;;;29.20;89.60;;;;;;5083675;28;20207;-84
2022/07/23 08:39:27;;;;;;;3.65;1.77;;;29.30;89.70;;;;;;5070828;28;20208;-82
2022/07/23 08:42:15;;;;;;;2.33;1.45;;;29.20;89.70;;;;;;5068404;28;20199;-83
2022/07/23 08:44:45;;;;;;;3.55;1.55;;;29.10;89.50;;;;;;5082150;28;20204;-84
2022/07/23 08:47:15;;;;;;;4.60;1.88;;;28.90;89.20;;;;;;5083759;28;20216;-84
2022/07/23 08:49:46;;;;;;;3.10;1.25;;;28.70;90.10;;;;;;5096362;28;20269;-81
2022/07/23 08:52:14;;;;;;;3.05;1.30;;;28.80;90.40;;;;;;5087252;28;20203;-85
2022/07/23 08:54:41;;;;;;;2.88;1.33;;;28.90;90.40;;;;;;5083856;28;20220;-83
2022/07/23 08:57:11;;;;;;;2.47;1.25;;;29.10;90.30;;;;;;5095653;28;20200;-83
2022/07/23 08:59:41;;;;;;;3.85;1.33;;;29.10;90.00;;;;;;5096914;28;20195;-89
2022/07/23 09:02:08;;;;;;;2.38;1.30;;;29.30;89.40;;;;;;5086071;28;20828;-89
2022/07/23 09:04:36;;;;;;;2.72;1.10;;;29.50;89.30;;;;;;5085923;28;20580;-87
2022/07/23 09:07:03;;;;;;;5.68;1.30;;;29.60;87.40;;;;;;5093687;28;20716;-87
2022/07/23 09:10:31;;;;;;;2.25;1.00;;;29.10;87.30;;;;;;5094966;28;20453;-89
2022/07/23 09:12:56;;;;;;;2.65;1.20;;;28.50;88.60;;;;;;5082891;28;20206;-84
2022/07/23 09:15:23;;;;;;;1.75;1.20;;;27.90;90.50;;;;;;5085091;28;20200;-85
2022/07/23 09:17:51;;;;;;;1.70;1.10;;;;;;;;;;5079127;28;20207;-83
2022/07/23 09:20:20;;;;;;;2.00;1.00;;;27.30;90.60;;;;;;5084145;28;20220;-91
2022/07/23 09:22:48;;;;;;;3.45;1.17;;;27.30;91.30;;;;;;5089104;28;20212;-84
2022/07/23 09:25:18;;;;;;;3.63;1.20;;;27.50;91.30;;;;;;5087068;28;20716;-84
2022/07/23 09:28:07;;;;;;;1.80;1.10;;;27.60;90.60;;;;;;5085506;28;20207;-83
2022/07/23 09:30:34;;;;;;;1.08;1.00;;;27.30;90.50;;;;;;5081255;28;20224;-82
2022/07/23 09:33:15;;;;;;;4.00;1.50;;;27.10;90.90;;;;;;5095906;28;20627;-84
2022/07/23 09:35:52;;;;;;;2.63;1.35;;;;;;;;;;5087581;28;20202;-85
2022/07/23 09:38:22;;;;;;;2.60;1.33;;;26.00;90.90;;;;;;5078593;28;20248;-85
2022/07/23 09:41:09;;;;;;;2.75;1.25;;;25.60;92.10;;;;;;5089124;28;20220;-84
2022/07/23 09:43:36;;;;;;;3.70;1.20;;;25.40;93.80;;;;;;5084183;28;20258;-86
2022/07/23 09:46:26;;;;;;;1.92;1.40;;;25.40;94.40;;;;;;5098975;28;20196;-91
2022/07/23 09:48:56;;;;;;;1.60;1.15;;;25.70;93.50;;;;;;5092587;28;20580;-88
2022/07/23 09:53:54;;;;;;;1.52;1.30;;;26.30;92.40;;;;;;5080416;28;20313;-85
2022/07/23 09:56:22;;;;;;;2.35;1.20;;;26.30;92.60;;;;;;5083914;28;20289;-82
2022/07/23 10:01:35;;;;;;;2.97;1.35;;;26.40;92.80;;;;;;5083471;28;20204;-82
2022/07/23 10:04:03;;;;;;;2.45;1.45;;;26.30;92.50;;;;;;5090128;28;20247;-85
2022/07/23 10:06:31;;;;;;;3.97;1.40;;;26.00;93.00;;;;;;5084685;28;20261;-86
2022/07/23 10:08:59;;;;;;;3.65;1.58;;;25.60;93.40;;;;;;5089354;28;20207;-83
2022/07/23 10:11:28;;;;;;;3.25;1.50;;;25.50;94.30;;;;;;5084610;28;20310;-83
2022/07/23 10:13:57;;;;;;;13.95;1.90;;;25.70;93.90;;;;;;5088854;28;20204;-86
2022/07/23 10:16:28;;;;;;;1.88;1.40;;;26.00;93.90;;;;;;5098642;28;20212;-89
2022/07/23 10:19:06;;;;;;;2.00;1.42;;;26.40;93.70;;;;;;5096112;28;20219;-92
2022/07/23 10:21:48;;;;;;;2.45;1.30;;;26.60;93.10;;;;;;5095570;28;20219;-93
2022/07/23 10:24:49;;;;;;;2.60;1.45;;;26.80;93.50;;;;;;5092342;28;20211;-91
2022/07/23 10:27:44;;;;;;;3.83;2.00;;;26.80;92.10;;;;;;5084412;28;20307;-87
2022/07/23 10:30:42;;;;;;;2.70;1.67;;;27.40;91.90;;;;;;5091040;28;20231;-85
2022/07/23 10:33:38;;;;;;;3.58;1.83;;;27.70;91.40;;;;;;5095766;28;20235;-86
2022/07/23 10:36:18;;;;;;;3.63;1.40;;;27.80;91.30;;;;;;5079767;28;20208;-86
2022/07/23 10:39:17;;;;;;;1.80;1.60;;;27.80;92.40;;;;;;5089987;28;20203;-85
2022/07/23 10:41:45;;;;;;;2.10;1.55;;;27.80;92.40;;;;;;5087156;28;20214;-84
2022/07/23 10:44:14;;;;;;;3.95;1.52;;;27.40;92.00;;;;;;5084327;28;20188;-84
2022/07/23 10:49:49;;;;;;;5.20;1.90;;;27.20;93.00;;;;;;5083946;28;20878;-86
2022/07/23 10:52:18;;;;;;;2.30;1.42;;;27.10;93.60;;;;;;5087695;28;20664;-85
2022/07/23 10:54:50;;;;;;;2.60;1.73;;;27.20;93.40;;;;;;5093673;28;20227;-85
2022/07/23 10:57:23;;;;;;;4.68;1.75;;;27.30;93.00;;;;;;5089691;28;20239;-83
2022/07/23 11:00:08;;;;;;;3.63;1.85;;;27.30;92.20;;;;;;5095810;28;20573;-88
2022/07/23 11:02:36;;;;;;;3.53;1.80;;;27.30;91.90;;;;;;5089401;28;20226;-84
2022/07/23 11:05:18;;;;;;;3.53;1.90;;;27.30;91.10;;;;;;5086056;28;20204;-84
2022/07/23 11:08:03;;;;;;;2.60;1.90;;;27.30;92.00;;;;;;5087800;28;20199;-85
2022/07/23 11:10:35;;;;;;;3.65;1.70;;;27.20;92.20;;;;;;5093460;28;20227;-85
2022/07/23 11:13:24;;;;;;;1.95;1.80;;;27.20;92.40;;;;;;5092332;28;20268;-83
2022/07/23 11:16:12;;;;;;;2.92;1.60;;;27.20;92.70;;;;;;5087214;28;20200;-83
2022/07/23 11:18:39;;;;;;;2.28;1.60;;;27.20;92.10;;;;;;5079797;28;20216;-85
2022/07/23 11:21:28;;;;;;;7.30;2.08;;;27.20;92.20;;;;;;5084805;28;20551;-84
2022/07/23 11:24:01;;;;;;;2.83;1.98;;;27.30;92.10;;;;;;5083753;28;20196;-85
2022/07/23 11:26:56;;;;;;;4.25;1.88;;;27.50;91.70;;;;;;5087887;28;20286;-85
2022/07/23 11:29:26;;;;;;;1.98;1.75;;;27.30;91.90;;;;;;5078268;28;20222;-84
2022/07/23 11:32:02;;;;;;;2.35;1.70;;;27.10;92.10;;;;;;5088720;28;20472;-86
2022/07/23 11:34:38;;;;;;;2.40;1.70;;;27.50;92.60;;;;;;5082754;28;20199;-84
2022/07/23 11:37:25;;;;;;;3.08;1.63;;;27.30;91.80;;;;;;5088474;28;20254;-84
2022/07/23 11:39:57;;;;;;;3.00;1.75;;;27.10;92.20;;;;;;5084827;28;20607;-85
2022/07/23 11:42:24;;;;;;;3.30;1.80;;;26.90;92.50;;;;;;5085017;28;20207;-84
2022/07/23 11:44:57;;;;;;;2.30;1.60;;;26.90;92.60;;;;;;5080809;28;20224;-83
2022/07/23 11:47:26;;;;;;;2.85;1.70;;;27.10;92.40;;;;;;5086831;28;20228;-83
2022/07/23 11:49:58;;;;;;;2.40;1.85;;;27.10;91.80;;;;;;5082072;28;20196;-85
2022/07/23 11:52:26;;;;;;;2.08;1.60;;;27.30;92.60;;;;;;5087014;28;20207;-83
2022/07/23 11:54:56;;;;;;;2.38;1.60;;;27.20;93.00;;;;;;5083003;28;20202;-85
2022/07/23 11:57:32;;;;;;;2.13;1.73;;;27.20;93.00;;;;;;5083025;28;20314;-82
2022/07/23 12:00:20;;;;;;;2.95;1.70;;;27.20;93.10;;;;;;5081332;28;20668;-85
2022/07/23 12:03:01;;;;;;;2.80;1.90;;;27.40;93.20;;;;;;5078285;28;20228;-83
2022/07/23 12:05:31;;;;;;;2.80;1.85;;;27.40;92.70;;;;;;5083415;28;20222;-83
2022/07/23 12:08:00;;;;;;;10.98;2.00;;;27.50;92.30;;;;;;5079539;28;20203;-83
2022/07/23 12:10:39;;;;;;;1.52;1.42;;;27.70;93.00;;;;;;5076796;28;20220;-84
2022/07/23 12:13:12;;;;;;;2.85;1.90;;;27.90;93.00;;;;;;5084683;28;20204;-84
2022/07/23 12:15:46;;;;;;;2.38;1.75;;;28.10;92.10;;;;;;5083550;28;20208;-88
2022/07/23 12:18:16;;;;;;;3.92;1.75;;;28.20;91.70;;;;;;5084992;28;20219;-84
2022/07/23 12:20:46;;;;;;;2.88;1.83;;;28.20;91.40;;;;;;5083713;28;20310;-83
2022/07/23 12:23:22;;;;;;;3.08;2.03;;;28.10;91.30;;;;;;5082141;28;20200;-85
2022/07/23 12:25:51;;;;;;;1.88;1.77;;;28.10;91.40;;;;;;5076085;28;20731;-84
2022/07/23 12:28:22;;;;;;;2.25;1.60;;;28.10;91.90;;;;;;5083128;28;20755;-85
2022/07/23 12:30:53;;;;;;;2.10;1.73;;;28.10;91.70;;;;;;5082529;28;20611;-85
2022/07/23 12:33:34;;;;;;;3.05;2.22;;;27.90;91.60;;;;;;5079627;28;20715;-85
2022/07/23 12:36:03;;;;;;;2.72;1.70;;;27.60;91.80;;;;;;5083069;28;20195;-83
2022/07/23 12:38:48;;;;;;;3.10;1.90;;;27.50;91.70;;;;;;5079030;28;20200;-85
2022/07/23 12:41:18;;;;;;;3.13;1.70;;;27.60;92.00;;;;;;5087055;28;20208;-85
2022/07/23 12:43:46;;;;;;;2.00;1.60;;;27.70;92.60;;;;;;5084023;28;20212;-84
2022/07/23 12:46:16;;;;;;;3.90;2.00;;;27.90;92.00;;;;;;5080678;28;20203;-82
2022/07/23 12:48:55;;;;;;;4.93;2.25;;;27.80;91.80;;;;;;5080366;28;20208;-84
2022/07/23 12:51:30;;;;;;;3.88;1.80;;;27.70;92.40;;;;;;5081255;28;20265;-84
2022/07/23 12:54:04;;;;;;;3.25;1.73;;;27.60;92.30;;;;;;5083720;28;20215;-84
2022/07/23 12:56:34;;;;;;;3.10;2.05;;;27.80;92.20;;;;;;5085371;28;20572;-83
2022/07/23 12:59:04;;;;;;;2.92;1.90;;;28.10;92.10;;;;;;5077853;28;20200;-83
2022/07/23 13:01:35;;;;;;;2.10;1.88;;;28.40;92.80;;;;;;5084749;28;20208;-83
2022/07/23 13:04:12;;;;;;;1.92;1.73;;;28.60;91.60;;;;;;5073535;28;20731;-83
2022/07/23 13:06:46;;;;;;;3.20;2.22;;;28.90;90.90;;;;;;5080466;28;20295;-82
2022/07/23 13:09:18;;;;;;;4.28;1.80;;;28.90;90.50;;;;;;5073277;28;20669;-85
2022/07/23 13:11:46;;;;;;;5.95;1.92;;;28.70;90.70;;;;;;5082226;28;20346;-82
2022/07/23 13:14:15;;;;;;;3.33;2.00;;;28.60;91.20;;;;;;5080559;28;20207;-82